Time;durP1;ratioP1;P1;durP2;ratioP2;P2;SDS_P1;SDS_P2;PMS_P1;PMS_P2;Temp;Humidity;BMP_temperature;BMP_pressure;BME280_temperature;BME280_humidity;BME280_pressure;Samples;Min_cycle;Max_cycle;Signal;HPM_P1;HPM_P2
2022/12/24 00:00:57;;;;;;;0.67;0.67;;;;;;;;;;5094085;28;20260;-78
2022/12/24 00:03:23;;;;;;;0.80;0.80;;;;;;;;;;5093563;28;20205;-78
2022/12/24 00:05:49;;;;;;;0.77;0.77;;;;;;;;;;5093748;28;20170;-78
2022/12/24 00:08:15;;;;;;;0.60;0.60;;;;;;;;;;5093598;28;20178;-77
2022/12/24 00:10:41;;;;;;;0.67;0.67;;;;;;;;;;5093343;28;20178;-78
2022/12/24 00:13:07;;;;;;;0.60;0.60;;;;;;;;;;5093164;28;20231;-78
2022/12/24 00:15:33;;;;;;;0.60;0.60;;;;;;;;;;5093763;28;20174;-78
2022/12/24 00:17:59;;;;;;;0.60;0.60;;;;;;;;;;5093756;28;20182;-78
2022/12/24 00:20:25;;;;;;;0.70;0.70;;;;;;;;;;5093486;28;20197;-78
2022/12/24 00:22:50;;;;;;;0.70;0.70;;;;;;;;;;5092765;28;20193;-77
2022/12/24 00:25:16;;;;;;;0.60;0.60;;;;;;;;;;5093580;28;20174;-78
2022/12/24 00:27:42;;;;;;;0.70;0.70;;;;;;;;;;5075216;28;20174;-78
2022/12/24 00:30:08;;;;;;;0.63;0.63;;;;;;;;;;5093495;28;20630;-77
2022/12/24 00:32:36;;;;;;;0.73;0.73;;;;;;;;;;5093376;28;20750;-78
2022/12/24 00:35:02;;;;;;;0.60;0.60;;;;;;;;;;5093848;28;20206;-78
2022/12/24 00:37:28;;;;;;;0.70;0.70;;;;;;;;;;5093790;28;20181;-77
2022/12/24 00:39:54;;;;;;;0.60;0.60;;;;;;;;;;5093062;28;20173;-77
2022/12/24 00:42:20;;;;;;;0.60;0.60;;;;;;;;;;5094060;28;20189;-79
2022/12/24 00:44:46;;;;;;;0.73;0.73;;;;;;;;;;5096178;28;20198;-79
2022/12/24 00:47:12;;;;;;;0.70;0.70;;;;;;;;;;5094453;28;20223;-79
2022/12/24 00:49:38;;;;;;;0.70;0.70;;;;;;;;;;5092756;28;20609;-79
2022/12/24 00:52:04;;;;;;;0.70;0.70;;;;;;;;;;5092825;28;20206;-78
2022/12/24 00:54:30;;;;;;;0.70;0.70;;;;;;;;;;5093809;28;20232;-79
2022/12/24 00:56:56;;;;;;;0.60;0.60;;;;;;;;;;5094181;28;20554;-78
2022/12/24 00:59:22;;;;;;;0.60;0.60;;;;;;;;;;5092402;28;20261;-77
2022/12/24 01:01:48;;;;;;;0.57;0.57;;;;;;;;;;5081566;28;20175;-78
2022/12/24 01:06:59;;;;;;;0.60;0.60;;;;;;;;;;5095543;28;20284;-79
2022/12/24 01:09:25;;;;;;;0.70;0.70;;;;;;;;;;5092963;28;20573;-79
2022/12/24 01:11:51;;;;;;;0.50;0.50;;;;;;;;;;5092615;28;20181;-78
2022/12/24 01:14:17;;;;;;;0.70;0.70;;;;;;;;;;5092315;28;20348;-80
2022/12/24 01:16:43;;;;;;;0.60;0.60;;;;;;;;;;5094255;28;20174;-79
2022/12/24 01:19:09;;;;;;;0.60;0.60;;;;;;;;;;5096543;28;20181;-79
2022/12/24 01:21:35;;;;;;;0.50;0.50;;;;;;;;;;5115639;28;20197;-80
2022/12/24 01:24:01;;;;;;;0.50;0.50;;;;;;;;;;5115684;28;20185;-80
2022/12/24 01:26:27;;;;;;;0.63;0.63;;;;;;;;;;5098316;28;20185;-79
2022/12/24 01:28:53;;;;;;;0.63;0.63;;;;;;;;;;5102554;28;20261;-79
2022/12/24 01:31:19;;;;;;;0.60;0.60;;;;;;;;;;5097882;28;20239;-80
2022/12/24 01:33:46;;;;;;;0.60;0.60;;;;;;;;;;5097773;28;20269;-79
2022/12/24 01:36:13;;;;;;;0.63;0.63;;;;;;;;;;5094359;28;20173;-79
2022/12/24 01:38:39;;;;;;;0.60;0.60;;;;;;;;;;5096755;28;20178;-80
2022/12/24 01:43:49;;;;;;;0.53;0.53;;;;;;;;;;5095699;28;20212;-80
2022/12/24 01:46:18;;;;;;;0.70;0.70;;;;;;;;;;5098051;28;20174;-80
2022/12/24 01:48:44;;;;;;;0.60;0.60;;;;;;;;;;5095021;28;20265;-78
2022/12/24 01:51:10;;;;;;;0.60;0.60;;;;;;;;;;5094404;28;20209;-81
2022/12/24 01:53:37;;;;;;;0.50;0.50;;;;;;;;;;5095313;28;20245;-77
2022/12/24 01:56:04;;;;;;;0.60;0.60;;;;;;;;;;5098227;28;20260;-80
2022/12/24 01:58:32;;;;;;;0.57;0.57;;;;;;;;;;5098726;28;20186;-80
2022/12/24 02:00:58;;;;;;;0.67;0.67;;;;;;;;;;5097257;28;20177;-82
2022/12/24 02:03:24;;;;;;;0.70;0.70;;;;;;;;;;5098094;28;20304;-80
2022/12/24 02:05:51;;;;;;;0.70;0.70;;;;;;;;;;5097598;28;20300;-80
2022/12/24 02:08:18;;;;;;;0.70;0.70;;;;;;;;;;5099230;28;20173;-81
2022/12/24 02:10:44;;;;;;;0.60;0.60;;;;;;;;;;5098526;28;20319;-79
2022/12/24 02:13:10;;;;;;;0.70;0.70;;;;;;;;;;5095202;28;20320;-80
2022/12/24 02:15:58;;;;;;;0.70;0.70;;;;;;;;;;5098005;28;20178;-80
2022/12/24 02:18:30;;;;;;;0.63;0.63;;;;;;;;;;5096534;28;20178;-79
2022/12/24 02:21:18;;;;;;;0.80;0.80;;;;;;;;;;5092188;28;20193;-79
2022/12/24 02:24:05;;;;;;;0.70;0.70;;;;;;;;;;5093986;28;20572;-79
2022/12/24 02:26:31;;;;;;;0.70;0.70;;;;;;;;;;5064022;28;20213;-81
2022/12/24 02:29:15;;;;;;;0.70;0.70;;;;;;;;;;5095346;28;20181;-79
2022/12/24 02:31:43;;;;;;;0.70;0.70;;;;;;;;;;5098543;28;20228;-79
2022/12/24 02:34:09;;;;;;;0.80;0.80;;;;;;;;;;5096999;28;20217;-79
2022/12/24 02:36:37;;;;;;;0.70;0.70;;;;;;;;;;5096684;28;20180;-80
2022/12/24 02:39:11;;;;;;;0.60;0.60;;;;;;;;;;5095648;28;20592;-80
2022/12/24 02:42:05;;;;;;;0.60;0.60;;;;;;;;;;5096526;28;20174;-79
2022/12/24 02:44:33;;;;;;;0.70;0.70;;;;;;;;;;5095630;28;20254;-78
2022/12/24 02:47:00;;;;;;;0.60;0.60;;;;;;;;;;5096324;28;20173;-79
2022/12/24 02:49:26;;;;;;;0.70;0.70;;;;;;;;;;5095801;28;20181;-81
2022/12/24 02:51:52;;;;;;;0.70;0.70;;;;;;;;;;5095751;28;20170;-80
2022/12/24 02:54:18;;;;;;;0.60;0.60;;;;;;;;;;5095128;28;20221;-79
2022/12/24 02:56:54;;;;;;;0.70;0.70;;;;;;;;;;5095939;28;20579;-78
2022/12/24 02:59:31;;;;;;;0.70;0.70;;;;;;;;;;5096673;28;20178;-78
2022/12/24 03:02:19;;;;;;;0.70;0.70;;;;;;;;;;5095938;28;20177;-81
2022/12/24 03:04:51;;;;;;;0.70;0.70;;;;;;;;;;5095676;28;20217;-78
2022/12/24 03:07:31;;;;;;;0.63;0.63;;;;;;;;;;5096291;28;20584;-81
2022/12/24 03:10:16;;;;;;;0.70;0.70;;;;;;;;;;5095954;28;20190;-80
2022/12/24 03:12:47;;;;;;;0.73;0.73;;;;;;;;;;5097220;28;20207;-79
2022/12/24 03:15:15;;;;;;;0.80;0.80;;;;;;;;;;5099359;28;20219;-78
2022/12/24 03:17:43;;;;;;;0.60;0.60;;;;;;;;;;5099914;28;20216;-79
2022/12/24 03:20:10;;;;;;;0.70;0.70;;;;;;;;;;5098832;28;20174;-78
2022/12/24 03:22:37;;;;;;;0.60;0.60;;;;;;;;;;5097750;28;20193;-80
2022/12/24 03:25:03;;;;;;;0.70;0.70;;;;;;;;;;5099503;28;20639;-80
2022/12/24 03:27:29;;;;;;;0.63;0.63;;;;;;;;;;5099971;28;20188;-80
2022/12/24 03:29:56;;;;;;;0.60;0.60;;;;;;;;;;5100339;28;20178;-79
2022/12/24 03:32:28;;;;;;;0.70;0.70;;;;;;;;;;5099060;28;20290;-79
2022/12/24 03:34:54;;;;;;;0.87;0.87;;;;;;;;;;5099546;28;20209;-80
2022/12/24 03:37:20;;;;;;;0.70;0.70;;;;;;;;;;5099721;28;20182;-79
2022/12/24 03:39:46;;;;;;;0.70;0.70;;;;;;;;;;5099615;28;20190;-80
2022/12/24 03:42:12;;;;;;;0.70;0.70;;;;;;;;;;5099827;28;20274;-80
2022/12/24 03:44:38;;;;;;;0.77;0.77;;;;;;;;;;5100402;28;20547;-81
2022/12/24 03:47:04;;;;;;;0.60;0.60;;;;;;;;;;5097821;28;20591;-77
2022/12/24 03:49:30;;;;;;;0.70;0.70;;;;;;;;;;5097699;28;20174;-77
2022/12/24 03:51:56;;;;;;;0.63;0.63;;;;;;;;;;5097261;28;20205;-82
2022/12/24 03:54:22;;;;;;;0.60;0.60;;;;;;;;;;5096511;28;20201;-79
2022/12/24 03:56:48;;;;;;;0.70;0.70;;;;;;;;;;5096357;28;20181;-79
2022/12/24 03:59:14;;;;;;;0.60;0.60;;;;;;;;;;5096766;28;20258;-78
2022/12/24 04:01:40;;;;;;;0.73;0.73;;;;;;;;;;5103669;28;20201;-78
2022/12/24 04:04:06;;;;;;;0.50;0.50;;;;;;;;;;5101474;28;20224;-79
2022/12/24 04:06:32;;;;;;;0.60;0.60;;;;;;;;;;5095517;28;20174;-79
2022/12/24 04:09:00;;;;;;;0.70;0.70;;;;;;;;;;5094424;28;20178;-79
2022/12/24 04:11:26;;;;;;;0.70;0.70;;;;;;;;;;5094080;28;20545;-80
2022/12/24 04:13:52;;;;;;;0.60;0.60;;;;;;;;;;5097596;28;20573;-80
2022/12/24 04:16:18;;;;;;;0.70;0.70;;;;;;;;;;5095896;28;20620;-81
2022/12/24 04:18:44;;;;;;;0.60;0.60;;;;;;;;;;5097980;28;20599;-81
2022/12/24 04:21:11;;;;;;;0.80;0.80;;;;;;;;;;5119184;22;20201;-78
2022/12/24 04:23:37;;;;;;;0.70;0.70;;;;;;;;;;5096015;28;20233;-78
2022/12/24 04:26:04;;;;;;;0.63;0.63;;;;;;;;;;5098097;28;20264;-78
2022/12/24 04:28:30;;;;;;;0.70;0.70;;;;;;;;;;5097615;28;20642;-78
2022/12/24 04:31:00;;;;;;;0.63;0.63;;;;;;;;;;5096200;28;20173;-78
2022/12/24 04:33:26;;;;;;;0.63;0.63;;;;;;;;;;5094790;28;20228;-79
2022/12/24 04:35:52;;;;;;;0.60;0.60;;;;;;;;;;5095490;28;20216;-76
2022/12/24 04:38:18;;;;;;;0.70;0.70;;;;;;;;;;5092969;28;20204;-77
2022/12/24 04:40:44;;;;;;;0.60;0.60;;;;;;;;;;5092976;28;20178;-74
2022/12/24 04:43:10;;;;;;;0.50;0.50;;;;;;;;;;5092150;28;20198;-77
2022/12/24 04:45:36;;;;;;;0.60;0.60;;;;;;;;;;5092944;28;20304;-77
2022/12/24 04:48:02;;;;;;;0.60;0.60;;;;;;;;;;5093019;28;20547;-77
2022/12/24 04:50:28;;;;;;;0.70;0.70;;;;;;;;;;5093105;28;20260;-77
2022/12/24 04:52:54;;;;;;;0.80;0.80;;;;;;;;;;5092223;28;20213;-77
2022/12/24 04:55:19;;;;;;;0.60;0.60;;;;;;;;;;5093162;28;20268;-77
2022/12/24 04:57:45;;;;;;;0.70;0.70;;;;;;;;;;5092517;28;20174;-77
2022/12/24 05:00:12;;;;;;;0.60;0.60;;;;;;;;;;5092428;28;20219;-77
2022/12/24 05:02:37;;;;;;;0.80;0.80;;;;;;;;;;5092290;28;20178;-77
2022/12/24 05:05:04;;;;;;;0.80;0.80;;;;;;;;;;5092730;28;20314;-77
2022/12/24 05:07:29;;;;;;;0.70;0.70;;;;;;;;;;5092413;28;20174;-76
2022/12/24 05:09:55;;;;;;;0.63;0.63;;;;;;;;;;5092342;28;20174;-77
2022/12/24 05:12:22;;;;;;;0.60;0.60;;;;;;;;;;5091566;28;20261;-77
2022/12/24 05:14:48;;;;;;;0.73;0.73;;;;;;;;;;5092478;28;20293;-76
2022/12/24 05:17:14;;;;;;;0.70;0.70;;;;;;;;;;5092170;28;20202;-76
2022/12/24 05:19:40;;;;;;;0.80;0.80;;;;;;;;;;5092228;28;20170;-76
2022/12/24 05:27:55;;;;;;;0.57;0.57;;;;;;;;;;5029552;28;20178;-76
2022/12/24 05:30:21;;;;;;;0.70;0.70;;;;;;;;;;5066450;28;20185;-76
2022/12/24 05:32:47;;;;;;;0.60;0.60;;;;;;;;;;5091272;28;20221;-76
2022/12/24 05:35:13;;;;;;;0.50;0.50;;;;;;;;;;5091082;28;20185;-76
2022/12/24 05:37:39;;;;;;;0.70;0.70;;;;;;;;;;5092038;28;20235;-76
2022/12/24 05:40:05;;;;;;;0.70;0.70;;;;;;;;;;5091984;28;20193;-76
2022/12/24 05:42:31;;;;;;;0.60;0.60;;;;;;;;;;5091202;28;20181;-76
2022/12/24 05:44:57;;;;;;;0.80;0.80;;;;;;;;;;5091709;28;20201;-76
2022/12/24 05:47:23;;;;;;;0.70;0.70;;;;;;;;;;5091641;28;20311;-75
2022/12/24 05:49:48;;;;;;;0.60;0.60;;;;;;;;;;5091502;28;20174;-76
2022/12/24 05:52:14;;;;;;;0.70;0.70;;;;;;;;;;5091252;28;20170;-76
2022/12/24 05:54:42;;;;;;;0.80;0.80;;;;;;;;;;5091759;28;20311;-76
2022/12/24 05:57:08;;;;;;;0.80;0.80;;;;;;;;;;5091812;28;20751;-76
2022/12/24 05:59:34;;;;;;;0.50;0.50;;;;;;;;;;5091911;28;20647;-76
2022/12/24 06:02:00;;;;;;;0.60;0.60;;;;;;;;;;5091308;28;20574;-76
2022/12/24 06:04:25;;;;;;;0.60;0.60;;;;;;;;;;5091374;28;20219;-76
2022/12/24 06:06:51;;;;;;;0.70;0.70;;;;;;;;;;5091642;28;20601;-76
2022/12/24 06:09:17;;;;;;;0.60;0.60;;;;;;;;;;5091579;28;20467;-76
2022/12/24 06:11:43;;;;;;;0.70;0.70;;;;;;;;;;5091398;28;20185;-76
2022/12/24 06:14:09;;;;;;;0.60;0.60;;;;;;;;;;5090733;28;20299;-76
2022/12/24 06:16:35;;;;;;;0.73;0.73;;;;;;;;;;5091402;28;20211;-76
2022/12/24 06:19:01;;;;;;;0.87;0.87;;;;;;;;;;5091120;28;20186;-76
2022/12/24 06:21:27;;;;;;;0.90;0.90;;;;;;;;;;5091084;28;20291;-76
2022/12/24 06:23:53;;;;;;;0.70;0.70;;;;;;;;;;5090472;28;20198;-77
2022/12/24 06:26:21;;;;;;;0.60;0.60;;;;;;;;;;5091004;28;20178;-76
2022/12/24 06:28:47;;;;;;;0.60;0.60;;;;;;;;;;5091264;28;20564;-77
2022/12/24 06:31:15;;;;;;;0.70;0.70;;;;;;;;;;5091115;28;20181;-77
2022/12/24 06:33:41;;;;;;;0.60;0.60;;;;;;;;;;5090474;28;20213;-77
2022/12/24 06:36:07;;;;;;;0.53;0.53;;;;;;;;;;5091335;28;20280;-76
2022/12/24 06:38:33;;;;;;;0.67;0.67;;;;;;;;;;5091001;28;20181;-76
2022/12/24 06:40:59;;;;;;;0.70;0.70;;;;;;;;;;5091219;28;20192;-76
2022/12/24 06:43:25;;;;;;;0.70;0.70;;;;;;;;;;5090652;28;20276;-76
2022/12/24 06:45:52;;;;;;;0.63;0.63;;;;;;;;;;5092069;28;20174;-76
2022/12/24 06:48:18;;;;;;;0.70;0.70;;;;;;;;;;5095095;28;20665;-76
2022/12/24 06:50:44;;;;;;;0.80;0.80;;;;;;;;;;5095155;28;20173;-77
2022/12/24 06:53:10;;;;;;;0.80;0.80;;;;;;;;;;5094641;28;20224;-76
2022/12/24 06:55:36;;;;;;;0.80;0.80;;;;;;;;;;5094854;28;20670;-76
2022/12/24 06:58:03;;;;;;;0.70;0.70;;;;;;;;;;5095016;28;20181;-76
2022/12/24 07:00:29;;;;;;;0.60;0.60;;;;;;;;;;5094627;28;20173;-76
2022/12/24 07:02:55;;;;;;;0.80;0.80;;;;;;;;;;5094520;28;20194;-76
2022/12/24 07:05:21;;;;;;;0.77;0.77;;;;;;;;;;5095116;28;20184;-76
2022/12/24 07:07:47;;;;;;;0.70;0.70;;;;;;;;;;5095247;28;20170;-77
2022/12/24 07:10:14;;;;;;;0.80;0.80;;;;;;;;;;5095402;28;20181;-77
2022/12/24 07:12:40;;;;;;;0.70;0.70;;;;;;;;;;5094725;28;20206;-77
2022/12/24 07:15:07;;;;;;;0.80;0.80;;;;;;;;;;5094747;28;20181;-77
2022/12/24 07:17:33;;;;;;;0.50;0.50;;;;;;;;;;5095270;28;20193;-77
2022/12/24 07:19:59;;;;;;;0.60;0.60;;;;;;;;;;5099595;28;20181;-77
2022/12/24 07:22:25;;;;;;;0.60;0.60;;;;;;;;;;5100555;28;20193;-77
2022/12/24 07:24:50;;;;;;;0.70;0.70;;;;;;;;;;5100016;28;20240;-77
2022/12/24 07:27:16;;;;;;;0.70;0.70;;;;;;;;;;5096074;28;20204;-78
2022/12/24 07:29:42;;;;;;;0.70;0.70;;;;;;;;;;5096881;28;20193;-80
2022/12/24 07:32:09;;;;;;;0.70;0.70;;;;;;;;;;5096595;28;20251;-80
2022/12/24 07:34:35;;;;;;;0.70;0.70;;;;;;;;;;5091971;28;20202;-82
2022/12/24 07:37:01;;;;;;;0.70;0.70;;;;;;;;;;5087338;28;20265;-81
2022/12/24 07:39:27;;;;;;;0.77;0.77;;;;;;;;;;5088338;28;20548;-79
2022/12/24 07:41:53;;;;;;;0.60;0.60;;;;;;;;;;5083573;28;20620;-81
2022/12/24 07:44:19;;;;;;;0.60;0.60;;;;;;;;;;5075971;28;20202;-81
2022/12/24 07:46:45;;;;;;;0.60;0.60;;;;;;;;;;5077433;28;20182;-81
2022/12/24 07:49:11;;;;;;;0.70;0.70;;;;;;;;;;5077383;28;20175;-79
2022/12/24 07:51:37;;;;;;;0.70;0.70;;;;;;;;;;5076822;28;20174;-81
2022/12/24 07:54:03;;;;;;;0.57;0.57;;;;;;;;;;5076169;28;20289;-80
2022/12/24 07:56:30;;;;;;;0.50;0.50;;;;;;;;;;5083120;28;20388;-80
2022/12/24 07:58:56;;;;;;;0.70;0.70;;;;;;;;;;5081345;28;20183;-84
2022/12/24 08:01:22;;;;;;;0.57;0.57;;;;;;;;;;5076288;28;20299;-81
2022/12/24 08:03:50;;;;;;;0.70;0.70;;;;;;;;;;5076048;28;20201;-80
2022/12/24 08:06:16;;;;;;;0.67;0.67;;;;;;;;;;5078393;28;20629;-77
2022/12/24 08:08:42;;;;;;;0.60;0.60;;;;;;;;;;5094155;28;20546;-76
2022/12/24 08:11:08;;;;;;;0.70;0.70;;;;;;;;;;5094244;28;20710;-75
2022/12/24 08:13:34;;;;;;;0.70;0.70;;;;;;;;;;5093234;28;20304;-76
2022/12/24 08:16:01;;;;;;;0.63;0.63;;;;;;;;;;5086934;28;20278;-76
2022/12/24 08:18:27;;;;;;;0.73;0.73;;;;;;;;;;5087437;28;20174;-76
2022/12/24 08:20:53;;;;;;;0.60;0.60;;;;;;;;;;5081948;28;20166;-76
2022/12/24 08:23:19;;;;;;;0.70;0.70;;;;;;;;;;5090473;28;20619;-76
2022/12/24 08:25:46;;;;;;;0.70;0.70;;;;;;;;;;5092589;28;20260;-75
2022/12/24 08:28:13;;;;;;;0.80;0.80;;;;;;;;;;5093050;28;20185;-74
2022/12/24 08:30:39;;;;;;;0.60;0.60;;;;;;;;;;5093364;28;20173;-75
2022/12/24 08:33:05;;;;;;;0.60;0.60;;;;;;;;;;5087699;28;20221;-74
2022/12/24 08:35:31;;;;;;;0.70;0.70;;;;;;;;;;5082861;28;20491;-76
2022/12/24 08:37:57;;;;;;;0.50;0.50;;;;;;;;;;5086707;28;20304;-76
2022/12/24 08:40:23;;;;;;;0.50;0.50;;;;;;;;;;5090351;28;20174;-76
2022/12/24 08:42:49;;;;;;;0.70;0.70;;;;;;;;;;5091911;28;20631;-76
2022/12/24 08:45:15;;;;;;;0.60;0.60;;;;;;;;;;5092675;28;20312;-77
2022/12/24 08:47:41;;;;;;;0.50;0.50;;;;;;;;;;5092584;28;20336;-75
2022/12/24 08:50:08;;;;;;;0.60;0.60;;;;;;;;;;5088972;28;20270;-76
2022/12/24 08:52:34;;;;;;;0.60;0.60;;;;;;;;;;5079757;28;20218;-76
2022/12/24 08:55:00;;;;;;;0.50;0.50;;;;;;;;;;5086096;28;20191;-76
2022/12/24 08:57:25;;;;;;;0.53;0.53;;;;;;;;;;5092423;28;20177;-75
2022/12/24 08:59:52;;;;;;;0.70;0.70;;;;;;;;;;5086509;28;20185;-76
2022/12/24 09:02:18;;;;;;;0.70;0.70;;;;;;;;;;5085585;28;20182;-76
2022/12/24 09:04:44;;;;;;;0.70;0.70;;;;;;;;;;5089727;28;20193;-76
2022/12/24 09:07:10;;;;;;;0.73;0.73;;;;;;;;;;5079980;28;20177;-76
2022/12/24 09:09:36;;;;;;;0.80;0.80;;;;;;;;;;5088299;28;20174;-78
2022/12/24 09:12:06;;;;;;;0.50;0.50;;;;;;;;;;5079934;28;20186;-76
2022/12/24 09:14:32;;;;;;;0.60;0.60;;;;;;;;;;5091319;28;20297;-77
2022/12/24 09:16:58;;;;;;;0.60;0.60;;;;;;;;;;5091858;28;20174;-76
2022/12/24 09:19:24;;;;;;;0.50;0.50;;;;;;;;;;5091628;28;20589;-77
2022/12/24 09:21:50;;;;;;;0.67;0.67;;;;;;;;;;5091536;28;20274;-75
2022/12/24 09:24:16;;;;;;;0.57;0.57;;;;;;;;;;5084776;28;20198;-77
2022/12/24 09:26:44;;;;;;;0.60;0.60;;;;;;;;;;5086400;28;20234;-78
2022/12/24 09:29:10;;;;;;;0.40;0.40;;;;;;;;;;5093100;28;20462;-77
2022/12/24 09:31:36;;;;;;;0.50;0.50;;;;;;;;;;5093114;28;20344;-78
2022/12/24 09:34:02;;;;;;;0.60;0.60;;;;;;;;;;5092517;28;20700;-79
2022/12/24 09:36:28;;;;;;;0.47;0.47;;;;;;;;;;5087058;28;20170;-78
2022/12/24 09:38:54;;;;;;;0.70;0.70;;;;;;;;;;5078912;28;20182;-77
2022/12/24 09:41:30;;;;;;;0.50;0.50;;;;;;;;;;5080942;28;20242;-77
2022/12/24 09:44:00;;;;;;;0.50;0.50;;;;;;;;;;5088694;28;20201;-76
2022/12/24 09:46:35;;;;;;;0.60;0.60;;;;;;;;;;5091862;28;20174;-77
2022/12/24 09:49:05;;;;;;;0.50;0.50;;;;;;;;;;5091564;28;20634;-76
2022/12/24 09:51:34;;;;;;;0.60;0.60;;;;;;;;;;5091550;28;20260;-74
2022/12/24 09:54:03;;;;;;;0.60;0.60;;;;;;;;;;5091905;28;20217;-77
2022/12/24 09:56:31;;;;;;;0.60;0.60;;;;;;;;;;5085005;28;20201;-77
2022/12/24 09:58:58;;;;;;;0.60;0.60;;;;;;;;;;5081144;28;20209;-77
2022/12/24 10:01:25;;;;;;;0.60;0.60;;;;;;;;;;5089987;28;20253;-76
2022/12/24 10:03:51;;;;;;;0.60;0.60;;;;;;;;;;5084404;28;20574;-79
2022/12/24 10:06:19;;;;;;;0.60;0.60;;;;;;;;;;5092973;28;20180;-78
2022/12/24 10:08:45;;;;;;;0.67;0.67;;;;;;;;;;5103701;28;20169;-77
2022/12/24 10:11:19;;;;;;;0.47;0.47;;;;;;;;;;5112626;28;20720;-78
2022/12/24 10:13:54;;;;;;;0.50;0.50;;;;;;;;;;5115203;28;20213;-78
2022/12/24 10:16:25;;;;;;;0.50;0.50;;;;;;;;;;5116896;28;20161;-78
2022/12/24 10:19:10;;;;;;;0.50;0.50;;;;;;;;;;5116363;28;20182;-80
2022/12/24 10:21:50;;;;;;;0.53;0.53;;;;;;;;;;5118906;28;20181;-79
2022/12/24 10:24:20;;;;;;;0.60;0.60;;;;;;;;;;5119655;28;20256;-79
2022/12/24 10:26:52;;;;;;;0.40;0.40;;;;;;;;;;5121202;28;20158;-79
2022/12/24 10:29:24;;;;;;;0.50;0.50;;;;;;;;;;5119430;28;20184;-78
2022/12/24 10:31:53;;;;;;;0.50;0.50;;;;;;;;;;5116700;28;20178;-78
2022/12/24 10:34:22;;;;;;;0.43;0.43;;;;;;;;;;5110710;28;20225;-78
2022/12/24 10:36:48;;;;;;;0.50;0.50;;;;;;;;;;5109890;28;20231;-77
2022/12/24 10:39:19;;;;;;;0.30;0.30;;;;;;;;;;5105816;28;20173;-78
2022/12/24 10:41:47;;;;;;;0.40;0.40;;;;;;;;;;5098459;28;20189;-78
2022/12/24 10:44:16;;;;;;;0.50;0.50;;;;;;;;;;5096753;28;20203;-77
2022/12/24 10:46:42;;;;;;;0.60;0.60;;;;;;;;;;5097702;28;20597;-78
2022/12/24 10:49:13;;;;;;;0.50;0.50;;;;;;;;;;5098232;28;20185;-78
2022/12/24 10:51:49;;;;;;;0.50;0.50;;;;;;;;;;5103242;28;20177;-78
2022/12/24 10:54:20;;;;;;;0.40;0.40;;;;;;;;;;5102758;28;20209;-78
2022/12/24 10:56:49;;;;;;;0.43;0.43;;;;;;;;;;5103777;28;20178;-77
2022/12/24 10:59:28;;;;;;;0.60;0.60;;;;;;;;;;5104538;28;20184;-78
2022/12/24 11:01:56;;;;;;;0.50;0.50;;;;;;;;;;5098228;28;20254;-79
2022/12/24 11:04:24;;;;;;;0.50;0.50;;;;;;;;;;5096949;28;20193;-77
2022/12/24 11:06:52;;;;;;;0.40;0.40;;;;;;;;;;5096759;28;20178;-78
2022/12/24 11:09:21;;;;;;;0.60;0.60;;;;;;;;;;5096218;28;20178;-77
2022/12/24 11:11:47;;;;;;;0.60;0.60;;;;;;;;;;5096000;28;20545;-77
2022/12/24 11:14:15;;;;;;;0.50;0.50;;;;;;;;;;5095716;28;20212;-78
2022/12/24 11:16:48;;;;;;;0.50;0.50;;;;;;;;;;5096770;28;20223;-77
2022/12/24 11:19:19;;;;;;;0.50;0.50;;;;;;;;;;5096991;28;20202;-78
2022/12/24 11:21:45;;;;;;;0.60;0.60;;;;;;;;;;5095916;28;20193;-78
2022/12/24 11:24:25;;;;;;;0.70;0.70;;;;;;;;;;5096199;28;20270;-79
2022/12/24 11:26:51;;;;;;;0.60;0.60;;;;;;;;;;5097134;28;20162;-78
2022/12/24 11:29:19;;;;;;;0.50;0.50;;;;;;;;;;5095925;28;20173;-79
2022/12/24 11:31:46;;;;;;;0.60;0.60;;;;;;;;;;5095442;28;20251;-79
2022/12/24 11:34:29;;;;;;;0.40;0.40;;;9.50;1.00;;;;;;5094689;28;20638;-78
2022/12/24 11:37:15;;;;;;;0.60;0.60;;;;;;;;;;5095656;28;20177;-78
2022/12/24 11:39:44;;;;;;;0.60;0.60;;;;;;;;;;5095077;28;20594;-78
2022/12/24 11:42:29;;;;;;;0.50;0.50;;;;;;;;;;5095359;28;20253;-79
2022/12/24 11:44:56;;;;;;;0.50;0.50;;;;;;;;;;5094804;28;20193;-79
2022/12/24 11:47:40;;;;;;;0.60;0.60;;;;;;;;;;5095093;28;20265;-79
2022/12/24 11:50:20;;;;;;;0.70;0.70;;;;;;;;;;5094673;28;20185;-79
2022/12/24 11:52:58;;;;;;;0.60;0.60;;;;;;;;;;5102263;28;20212;-79
2022/12/24 11:55:32;;;;;;;0.60;0.60;;;;;;;;;;5102976;28;20190;-78
2022/12/24 11:58:02;;;;;;;0.60;0.60;;;;;;;;;;5105108;28;20235;-78
2022/12/24 12:00:28;;;;;;;0.50;0.50;;;;;;;;;;5104523;28;20178;-81
2022/12/24 12:02:55;;;;;;;0.60;0.60;;;;;;;;;;5100521;28;20198;-79
2022/12/24 12:05:24;;;;;;;0.57;0.57;;;;;;;;;;5095024;28;20174;-78
2022/12/24 12:07:52;;;;;;;0.60;0.60;;;;;;;;;;5095471;28;20188;-77
2022/12/24 12:10:25;;;;;;;0.50;0.50;;;;;;;;;;5091409;28;20180;-79
2022/12/24 12:13:03;;;;;;;0.63;0.63;;;;;;;;;;5094725;28;20202;-77
2022/12/24 12:15:33;;;;;;;0.50;0.50;;;;;;;;;;5094951;28;20178;-79
2022/12/24 12:18:10;;;;;;;0.60;0.60;;;;;;;;;;5084423;28;20185;-78
2022/12/24 12:20:44;;;;;;;0.40;0.40;;;;;;;;;;5083145;28;20185;-77
2022/12/24 12:23:14;;;;;;;0.50;0.50;;;;;;;;;;5082922;28;20219;-77
2022/12/24 12:25:59;;;;;;;0.50;0.50;;;;;;;;;;5079134;28;20205;-78
2022/12/24 12:28:39;;;;;;;0.60;0.60;;;;;;;;;;5089462;28;20185;-77
2022/12/24 12:31:11;;;;;;;0.60;0.60;;;;;;;;;;5078949;28;20193;-77
2022/12/24 12:33:43;;;;;;;0.50;0.50;;;;;;;;;;5075670;28;20267;-78
2022/12/24 12:36:11;;;;;;;0.43;0.43;;;;;;;;;;5092668;28;20480;-79
2022/12/24 12:38:38;;;;;;;0.40;0.40;;;;;;;;;;5093514;28;20182;-78
2022/12/24 12:41:13;;;;;;;0.50;0.50;;;;;;;;;;5093672;28;20259;-79
2022/12/24 12:43:39;;;;;;;0.40;0.40;;;;;;;;;;5080721;28;20620;-78
2022/12/24 12:46:25;;;;;;;0.40;0.40;;;;;;;;;;5072644;28;20257;-77
2022/12/24 12:49:03;;;;;;;0.40;0.40;;;;;;;;;;5045719;28;20197;-77
2022/12/24 12:51:38;;;;;;;0.33;0.33;;;;;;;;;;5080779;28;20580;-77
2022/12/24 12:54:23;;;;;;;0.40;0.40;;;;;;;;;;5091330;28;20233;-77
2022/12/24 12:56:51;;;;;;;0.40;0.40;;;;;;;;;;5090689;28;20182;-77
2022/12/24 12:59:25;;;;;;;0.40;0.40;;;;;;;;;;5074639;28;20585;-78
2022/12/24 13:02:01;;;;;;;0.40;0.40;;;;;;;;;;5094021;28;20264;-78
2022/12/24 13:04:42;;;;;;;0.40;0.40;;;;;;;;;;5093580;28;20564;-78
2022/12/24 13:07:08;;;;;;;0.50;0.50;;;;;;;;;;5078020;28;20214;-77
2022/12/24 13:09:44;;;;;;;0.30;0.30;;;;;;;;;;5073152;28;20550;-78
2022/12/24 13:12:19;;;;;;;0.37;0.37;;;;;;;;;;5085130;28;20197;-78
2022/12/24 13:15:04;;;;;;;0.60;0.60;;;;;;;;;;5076990;28;20273;-79
2022/12/24 13:17:30;;;;;;;0.50;0.50;;;;;;;;;;5107873;28;20556;-79
2022/12/24 13:20:15;;;;;;;0.50;0.50;;;;;;;;;;5091423;28;20300;-78
2022/12/24 13:22:47;;;;;;;0.50;0.50;;;;;;;;;;5084704;28;20189;-78
2022/12/24 13:25:26;;;;;;;0.40;0.40;;;;;;;;;;5077113;28;20183;-78
2022/12/24 13:27:52;;;;;;;0.40;0.40;;;;;;;;;;5086389;28;20182;-79
2022/12/24 13:30:33;;;;;;;0.40;0.40;;;;;;;;;;5075123;28;20206;-79
2022/12/24 13:32:59;;;;;;;0.47;0.47;;;;;;;;;;5075022;28;20243;-78
2022/12/24 13:35:26;;;;;;;0.40;0.40;;;;;;;;;;5093578;28;20303;-78
2022/12/24 13:37:52;;;;;;;0.50;0.50;;;;;;;;;;5103185;28;20230;-77
2022/12/24 13:40:22;;;;;;;0.50;0.50;;;;;;;;;;5105246;28;20178;-78
2022/12/24 13:43:00;;;;;;;0.50;0.50;;;;;;;;;;5105213;28;20178;-78
2022/12/24 13:45:29;;;;;;;0.53;0.53;;;;;;;;;;5086708;28;20189;-78
2022/12/24 13:47:56;;;;;;;0.50;0.50;;;;;;;;;;5078527;28;20170;-78
2022/12/24 13:50:23;;;;;;;0.57;0.57;;;;;;;;;;5077708;28;20170;-79
2022/12/24 13:52:51;;;;;;;0.50;0.50;;;;;;;;;;5091443;28;20209;-78
2022/12/24 13:55:17;;;;;;;0.50;0.50;;;;;;;;;;5081705;28;20182;-77
2022/12/24 13:57:47;;;;;;;0.40;0.40;;;;;;;;;;5085742;28;20188;-78
2022/12/24 14:00:22;;;;;;;0.40;0.40;;;;;;;;;;5082777;28;20175;-78
2022/12/24 14:02:56;;;;;;;0.60;0.60;;;;;;;;;;5078577;28;20201;-78
2022/12/24 14:05:39;;;;;;;0.50;0.50;;;;;;;;;;5078182;28;20178;-79
2022/12/24 14:08:08;;;;;;;0.50;0.50;;;;;;;;;;5071694;28;20213;-79
2022/12/24 14:10:45;;;;;;;0.47;0.47;;;;;;;;;;5071882;28;20193;-77
2022/12/24 14:13:34;;;;;;;0.50;0.50;;;;;;;;;;5070569;28;20218;-78
2022/12/24 14:16:01;;;;;;;0.60;0.60;;;;;;;;;;5060164;28;20273;-78
2022/12/24 14:18:28;;;;;;;0.50;0.50;;;;;;;;;;5071157;28;20186;-77
2022/12/24 14:20:55;;;;;;;0.67;0.67;;;;;;;;;;5070987;28;20178;-81
2022/12/24 14:23:40;;;;;;;0.50;0.50;;;;;;;;;;5070349;28;20267;-79
2022/12/24 14:26:11;;;;;;;0.40;0.40;;;;;;;;;;5069834;28;20185;-79
2022/12/24 14:28:41;;;;;;;0.60;0.60;;;;;;;;;;5077394;28;20216;-80
2022/12/24 14:31:13;;;;;;;0.60;0.60;;;;;;;;;;5091204;28;20246;-79
2022/12/24 14:33:39;;;;;;;0.60;0.60;;;;;;;;;;5078576;28;20276;-81
2022/12/24 14:36:05;;;;;;;0.60;0.60;;;;;;;;;;5084857;28;20205;-79
2022/12/24 14:38:32;;;;;;;0.50;0.50;;;;;;;;;;5086063;28;20178;-79
2022/12/24 14:41:16;;;;;;;0.60;0.60;;;;;;;;;;5093640;28;20166;-77
2022/12/24 14:43:50;;;;;;;0.43;0.43;;;;;;;;;;5091372;28;20208;-78
2022/12/24 14:46:22;;;;;;;0.40;0.40;;;;;;;;;;5087131;28;20585;-78
2022/12/24 14:49:06;;;;;;;0.60;0.60;;;;;;;;;;5090757;28;20170;-76
2022/12/24 14:51:40;;;;;;;0.50;0.50;;;;;;;;;;5087983;28;20637;-79
2022/12/24 14:54:18;;;;;;;0.60;0.60;;;;;;;;;;5090471;28;20213;-76
2022/12/24 14:56:44;;;;;;;0.50;0.50;;;;;;;;;;5091239;28;20169;-82
2022/12/24 14:59:19;;;;;;;0.60;0.60;;;;;;;;;;5088752;28;20535;-83
2022/12/24 15:01:46;;;;;;;0.60;0.60;;;;;;;;;;5090641;28;20185;-77
2022/12/24 15:04:12;;;;;;;0.60;0.60;;;;;;;;;;5091422;28;20194;-80